Time;durP1;ratioP1;P1;durP2;ratioP2;P2;SDS_P1;SDS_P2;PMS_P1;PMS_P2;Temp;Humidity;BMP_temperature;BMP_pressure;BME280_temperature;BME280_humidity;BME280_pressure;Samples;Min_cycle;Max_cycle;Signal;HPM_P1;HPM_P2
2023/09/26 00:01:28;;;;;;;67.53;5.47;;;;;;;22.21;54.24;100233.22;7302136;19;129532;-38
2023/09/26 00:03:53;;;;;;;91.70;6.38;;;;;;;22.10;55.02;100218.38;7302259;19;129173;-38
2023/09/26 00:06:24;;;;;;;93.50;6.37;;;;;;;22.22;55.38;100234.88;7303261;19;131034;-39
2023/09/26 00:08:52;;;;;;;67.93;4.90;;;;;;;22.22;54.62;100229.63;7302987;19;129861;-39
2023/09/26 00:11:19;;;;;;;107.20;6.50;;;;;;;22.26;54.37;100231.06;7303529;19;130881;-39
2023/09/26 00:13:45;;;;;;;84.63;5.97;;;;;;;22.23;54.91;100229.50;7301049;19;129101;-39
2023/09/26 00:16:11;;;;;;;56.47;4.40;;;;;;;22.22;54.48;100232.25;7300864;19;129854;-36
2023/09/26 00:18:40;;;;;;;82.03;5.93;;;;;;;22.24;54.88;100228.56;7299535;19;129737;-37
2023/09/26 00:21:05;;;;;;;88.35;5.82;;;;;;;22.25;54.06;100230.22;7300327;19;131191;-38
2023/09/26 00:23:31;;;;;;;58.77;4.53;;;;;;;22.23;54.27;100229.50;7303223;19;129341;-38
2023/09/26 00:25:56;;;;;;;70.60;5.17;;;;;;;22.23;54.21;100229.50;7301947;19;130834;-36
2023/09/26 00:28:23;;;;;;;114.10;7.78;;;;;;;22.20;54.37;100229.75;7301627;19;130583;-37
2023/09/26 00:30:48;;;;;;;121.60;8.05;;;;;;;22.20;54.55;100218.44;7301330;19;129084;-39
2023/09/26 00:33:13;;;;;;;85.93;6.13;;;;;;;22.24;54.68;100217.25;7302476;19;129783;-39
2023/09/26 00:35:39;;;;;;;124.07;7.57;;;;;;;22.24;54.14;100217.25;7302524;19;130204;-36
2023/09/26 00:38:04;;;;;;;57.40;4.53;;;;;;;22.24;54.66;100217.25;7297533;19;130431;-39
2023/09/26 00:40:29;;;;;;;86.40;5.93;;;;;;;22.21;54.16;100214.88;7301949;19;131673;-39
2023/09/26 00:42:58;;;;;;;89.80;6.47;;;;;;;22.22;54.68;100217.38;7302026;19;131476;-38
2023/09/26 00:45:24;;;;;;;59.85;4.40;;;;;;;22.25;54.77;100213.66;7307502;19;130366;-37
2023/09/26 00:47:49;;;;;;;163.57;10.30;;;;;;;22.25;54.15;100224.97;7306769;19;131322;-37
2023/09/26 00:50:15;;;;;;;47.60;4.00;;;;;;;22.28;54.56;100221.28;7308336;19;129166;-39
2023/09/26 00:52:44;;;;;;;63.92;4.72;;;;;;;22.28;54.54;100222.09;7309641;19;129007;-37
2023/09/26 00:55:10;;;;;;;67.05;5.05;;;;;;;22.26;54.63;100215.34;7308285;19;130126;-38
2023/09/26 00:57:37;;;;;;;72.50;5.18;;;;;;;22.15;53.85;100194.47;7309038;19;130391;-38
2023/09/26 01:00:03;;;;;;;;;;;;;;;22.25;55.49;100209.25;7306671;19;129329;-36
2023/09/26 01:02:28;;;;;;;58.90;4.68;;;;;;;22.25;54.22;100211.88;7311160;19;130119;-39
2023/09/26 01:04:54;;;;;;;102.43;7.20;;;;;;;22.24;54.00;100212.00;7306615;19;130209;-37
2023/09/26 01:07:21;;;;;;;98.93;6.23;;;;;;;22.24;54.59;100199.75;7309445;19;131079;-37
2023/09/26 01:09:47;;;;;;;107.82;7.03;;;;;;;22.24;54.13;100209.38;7307678;19;129440;-36
2023/09/26 01:12:13;;;;;;;40.80;3.58;;;;;;;22.22;54.10;100211.28;7308276;19;129528;-36
2023/09/26 01:14:39;;;;;;;66.80;5.07;;;;;;;22.22;53.95;100203.44;7310098;19;130496;-38
2023/09/26 01:17:04;;;;;;;108.10;7.00;;;;;;;22.23;53.60;100203.31;7307604;19;131593;-38
2023/09/26 01:19:29;;;;;;;68.27;4.83;;;;;;;22.21;53.70;100205.25;7307552;19;129544;-38
2023/09/26 01:21:55;;;;;;;85.97;5.87;;;;;;;22.24;53.82;100210.22;7307360;19;129688;-39
2023/09/26 01:24:20;;;;;;;63.10;4.43;;;;;;;22.24;53.81;100209.38;7307531;19;130039;-38
2023/09/26 01:26:46;;;;;;;98.30;6.57;;;;;;;22.25;54.08;100206.63;7307337;19;129638;-38
2023/09/26 01:29:12;;;;;;;62.93;4.87;;;;;;;22.24;53.96;100204.16;7309209;19;129147;-39
2023/09/26 01:31:37;;;;;;;67.10;4.88;;;;;;;22.25;54.07;100204.00;7308686;19;129566;-38
2023/09/26 01:34:04;;;;;;;64.87;4.90;;;;;;;22.24;53.67;100204.16;7306616;19;129974;-38
2023/09/26 01:36:30;;;;;;;98.22;6.53;;;;;;;22.25;54.29;100216.28;7307840;19;129725;-38
2023/09/26 01:38:56;;;;;;;68.05;5.30;;;;;;;22.23;54.09;100202.50;7306962;19;130585;-39
2023/09/26 01:41:22;;;;;;;66.97;4.93;;;;;;;22.24;54.38;100210.22;7305875;19;129796;-39
2023/09/26 01:43:47;;;;;;;101.00;6.85;;;;;;;22.24;53.74;100209.38;7306005;19;130141;-37
2023/09/26 01:46:13;;;;;;;104.13;6.80;;;;;;;22.25;54.26;100200.56;7306024;19;130364;-35
2023/09/26 01:48:38;;;;;;;58.40;4.33;;;;;;;22.23;53.94;100205.94;7307883;19;129502;-37
2023/09/26 01:51:06;;;;;;;39.75;3.33;;;;;;;22.22;54.19;100206.06;7304709;19;129978;-37
2023/09/26 01:53:32;;;;;;;106.68;7.20;;;;;;;22.12;54.07;100184.22;7307158;19;129522;-39
2023/09/26 01:56:01;;;;;;;158.53;9.83;;;;;;;22.24;54.96;100198.91;7304666;19;129804;-37
2023/09/26 01:58:27;;;;;;;105.47;7.20;;;;;;;22.25;54.17;100195.31;7303896;19;129528;-36
2023/09/26 02:00:52;;;;;;;79.40;5.63;;;;;;;22.22;54.42;100198.19;7306223;19;129445;-37
2023/09/26 02:03:19;;;;;;;90.20;6.05;;;;;;;22.23;54.28;100200.69;7307799;19;130614;-38
2023/09/26 02:05:44;;;;;;;66.85;4.68;;;;;;;22.24;54.19;100198.91;7306978;19;132568;-37
2023/09/26 02:08:10;;;;;;;75.83;5.50;;;;;;;22.24;53.88;100202.38;7304331;19;129509;-38
2023/09/26 02:10:35;;;;;;;69.22;4.93;;;;;;;22.24;54.50;100199.75;7304867;19;129542;-38
2023/09/26 02:13:00;;;;;;;87.23;5.90;;;;;;;22.27;54.36;100198.66;7308721;19;130104;-39
2023/09/26 02:15:26;;;;;;;86.27;5.90;;;;;;;22.28;53.81;100195.09;7307262;19;130973;-37
2023/09/26 02:17:51;;;;;;;82.23;5.97;;;;;;;22.27;54.12;100196.03;7308545;19;129629;-37
2023/09/26 02:20:18;;;;;;;69.68;5.22;;;;;;;22.28;54.45;100198.50;7301648;19;129802;-38
2023/09/26 02:22:49;;;;;;;108.78;6.78;;;;;;;22.28;54.56;100195.09;7305622;19;129824;-36
2023/09/26 02:25:15;;;;;;;54.70;4.55;;;;;;;22.28;54.19;100195.91;7307731;19;133213;-38
2023/09/26 02:27:42;;;;;;;;;;;;;;;22.28;55.70;100198.50;7308858;19;129201;-37
2023/09/26 02:30:09;;;;;;;75.75;5.28;;;;;;;22.28;53.70;100200.31;7303462;19;129146;-38
2023/09/26 02:32:35;;;;;;;86.32;6.00;;;;;;;22.26;53.86;100204.84;7306426;19;131361;-38
2023/09/26 02:35:02;;;;;;;116.47;7.63;;;;;;;22.24;53.74;100209.38;7307049;19;129580;-37
2023/09/26 02:37:27;;;;;;;70.00;5.15;;;;;;;22.14;53.86;100187.53;7301548;19;129664;-38
2023/09/26 02:39:53;;;;;;;75.80;6.20;;;;;;;22.20;53.85;100198.34;7303535;19;129285;-38
2023/09/26 02:42:18;;;;;;;79.05;5.47;;;;;;;22.24;53.99;100194.50;7305810;19;129234;-36
2023/09/26 02:44:43;;;;;;;83.20;5.75;;;;;;;22.25;53.84;100200.56;7307065;19;131053;-36
2023/09/26 02:47:09;;;;;;;69.35;5.10;;;;;;;22.22;53.92;100201.66;7305126;19;129868;-39
2023/09/26 02:49:34;;;;;;;55.20;4.47;;;;;;;22.22;54.28;100201.66;7304507;19;129097;-35
2023/09/26 02:51:59;;;;;;;118.93;7.97;;;;;;;22.24;54.24;100198.91;7305161;19;130145;-37
2023/09/26 02:54:28;;;;;;;72.00;5.65;;;;;;;22.25;54.23;100200.56;7305555;19;130323;-38
2023/09/26 02:56:53;;;;;;;86.88;6.25;;;;;;;22.23;53.85;100202.50;7307243;19;129326;-38
2023/09/26 02:59:19;;;;;;;46.97;4.00;;;;;;;22.21;53.78;100189.53;7302389;19;129165;-38
2023/09/26 03:01:44;;;;;;;101.10;6.67;;;;;;;22.24;53.88;100188.44;7305347;19;129560;-38
2023/09/26 03:04:09;;;;;;;93.38;6.15;;;;;;;22.23;54.32;100187.59;7303789;19;130276;-38
2023/09/26 03:06:35;;;;;;;53.53;4.65;;;;;;;22.13;53.57;100165.75;7306394;19;129385;-38
2023/09/26 03:09:00;;;;;;;64.40;5.15;;;;;;;22.26;54.21;100191.75;7303249;19;129025;-39
2023/09/26 03:11:26;;;;;;;96.27;6.23;;;;;;;22.25;54.08;100187.47;7301856;19;129107;-38
2023/09/26 03:13:51;;;;;;;70.93;5.57;;;;;;;22.26;53.94;100186.53;7307248;19;130378;-37
2023/09/26 03:16:18;;;;;;;70.00;5.27;;;;;;;22.25;53.49;100182.22;7304886;19;129351;-37
2023/09/26 03:18:44;;;;;;;84.43;5.80;;;;;;;22.16;53.76;100175.16;7303998;19;130383;-38
2023/09/26 03:21:11;;;;;;;98.77;6.60;;;;;;;22.27;54.00;100190.78;7301467;19;131681;-38
2023/09/26 03:23:36;;;;;;;;;;;;;;;22.27;54.97;100188.16;7307807;19;131007;-37
2023/09/26 03:26:02;;;;;;;91.40;6.90;;;;;;;22.15;53.85;100170.91;7305791;19;129110;-38
2023/09/26 03:28:27;;;;;;;130.03;8.67;;;;;;;22.26;54.06;100186.53;7301801;19;129683;-36
2023/09/26 03:30:53;;;;;;;97.93;6.83;;;;;;;22.27;53.75;100186.38;7304254;19;130069;-38
2023/09/26 03:33:18;;;;;;;116.07;7.53;;;;;;;22.25;54.10;100185.69;7306253;19;131297;-35
2023/09/26 03:35:43;;;;;;;59.17;4.75;;;;;;;22.26;53.58;100182.13;7304303;19;129162;-37
2023/09/26 03:38:09;;;;;;;107.53;6.93;;;;;;;22.24;53.38;100178.78;7303227;19;129262;-38
2023/09/26 03:40:34;;;;;;;83.53;6.15;;;;;;;22.27;53.89;100178.53;7303196;19;130496;-38
2023/09/26 03:42:59;;;;;;;65.20;5.30;;;;;;;22.26;53.84;100178.66;7303268;19;130988;-37
2023/09/26 03:45:25;;;;;;;62.33;4.67;;;;;;;22.28;53.71;100179.38;7303044;19;130598;-37
2023/09/26 03:47:51;;;;;;;106.38;7.10;;;;;;;22.23;54.06;100177.13;7305663;19;129331;-38
2023/09/26 03:50:16;;;;;;;124.97;8.20;;;;;;;22.15;54.07;100155.19;7299113;19;130947;-38
2023/09/26 03:52:42;;;;;;;74.17;6.10;;;;;;;22.27;53.82;100173.28;7302498;19;131571;-38
2023/09/26 03:55:07;;;;;;;74.17;6.00;;;;;;;22.27;53.77;100172.44;7303223;19;129532;-38
2023/09/26 03:57:34;;;;;;;113.50;7.20;;;;;;;22.24;53.79;100170.94;7302707;19;128940;-37
2023/09/26 04:00:00;;;;;;;74.87;5.97;;;;;;;22.27;53.21;100168.06;7299040;19;129095;-37
2023/09/26 04:02:25;;;;;;;65.82;5.03;;;;;;;22.25;53.71;100163.88;7302688;19;130788;-38
2023/09/26 04:04:51;;;;;;;82.03;5.97;;;;;;;22.22;53.57;100159.75;7304784;19;129736;-38
2023/09/26 04:07:16;;;;;;;102.73;6.90;;;;;;;22.24;53.25;100160.47;7303988;19;129305;-37
2023/09/26 04:09:42;;;;;;;73.17;5.27;;;;;;;22.24;53.39;100157.84;7303250;19;130077;-38
2023/09/26 04:12:07;;;;;;;100.03;6.93;;;;;;;22.23;53.94;100163.22;7302042;19;131105;-38
2023/09/26 04:14:32;;;;;;;65.90;5.07;;;;;;;22.24;53.06;100165.69;7302587;19;129307;-39
2023/09/26 04:16:58;;;;;;;103.73;7.13;;;;;;;22.29;53.27;100165.31;7299447;19;131645;-37
2023/09/26 04:19:23;;;;;;;73.72;5.47;;;;;;;22.28;53.61;100163.66;7302507;19;130354;-36
2023/09/26 04:21:52;;;;;;;49.73;4.33;;;;;;;22.27;54.20;100151.50;7307066;19;129171;-38
2023/09/26 04:24:19;;;;;;;78.82;5.97;;;;;;;22.28;53.31;100150.56;7307443;19;129143;-36
2023/09/26 04:26:44;;;;;;;94.80;6.85;;;;;;;22.30;53.03;100148.59;7310238;19;129323;-36
2023/09/26 04:29:10;;;;;;;90.37;7.03;;;;;;;22.28;53.04;100153.19;7308778;19;130180;-39
2023/09/26 04:31:35;;;;;;;89.37;6.73;;;;;;;22.27;52.58;100146.25;7307044;19;130364;-37
2023/09/26 04:34:01;;;;;;;152.13;10.40;;;;;;;22.28;52.77;100153.19;7307543;19;128930;-38
2023/09/26 04:36:26;;;;;;;222.38;14.85;;;;;;;22.17;52.01;100134.91;7305308;19;129312;-36
2023/09/26 04:38:51;;;;;;;61.90;5.47;;;;;;;22.27;52.70;100148.88;7307502;19;130448;-39
2023/09/26 04:41:17;;;;;;;186.48;12.50;;;;;;;22.25;52.31;100146.41;7305598;19;129610;-38
2023/09/26 04:43:42;;;;;;;78.30;6.23;;;;;;;22.23;52.65;100144.88;7310998;19;128938;-37
2023/09/26 04:46:16;;;;;;;122.65;8.85;;;;;;;22.13;53.60;100134.31;7307999;19;129181;-38
2023/09/26 04:48:43;;;;;;;69.53;5.78;;;;;;;22.24;52.59;100146.53;7306643;19;129755;-39
2023/09/26 04:51:11;;;;;;;106.70;7.78;;;;;;;22.21;52.08;100147.63;7306879;19;129649;-36
2023/09/26 04:53:37;;;;;;;80.85;6.53;;;;;;;22.21;52.72;100147.63;7307077;19;129147;-36
2023/09/26 04:56:03;;;;;;;82.63;6.40;;;;;;;22.21;52.77;100141.56;7309321;19;130011;-37
2023/09/26 04:58:32;;;;;;;101.43;7.63;;;;;;;22.08;52.07;100133.88;7303219;19;130141;-37
2023/09/26 05:00:58;;;;;;;77.28;6.28;;;;;;;22.20;52.66;100150.34;7303329;19;130667;-38
2023/09/26 05:03:25;;;;;;;78.30;6.40;;;;;;;22.18;52.82;100149.69;7306953;19;129855;-38
2023/09/26 05:05:50;;;;;;;91.33;6.63;;;;;;;22.19;52.71;100159.19;7308467;19;131229;-37
2023/09/26 05:08:16;;;;;;;119.07;9.00;;;;;;;22.19;52.27;100159.19;7303419;19;129515;-38
2023/09/26 05:10:41;;;;;;;67.90;5.47;;;;;;;22.15;53.06;100148.13;7302518;19;129402;-37
2023/09/26 05:13:07;;;;;;;110.13;7.93;;;;;;;22.15;52.69;100149.94;7307347;19;129084;-37
2023/09/26 05:15:34;;;;;;;96.53;7.27;;;;;;;22.15;53.18;100148.13;7308587;19;129452;-39
2023/09/26 05:18:00;;;;;;;;;;;;;;;22.19;54.62;100160.03;7310144;19;130349;-38
2023/09/26 05:20:25;;;;;;;69.88;5.70;;;;;;;22.08;52.96;100140.94;7303337;19;129213;-37
2023/09/26 05:22:51;;;;;;;100.00;7.53;;;;;;;22.18;53.22;100163.56;7306929;19;130404;-38
2023/09/26 05:25:17;;;;;;;102.80;7.57;;;;;;;22.14;53.29;100156.13;7308478;19;129189;-36
2023/09/26 05:27:43;;;;;;;60.87;5.43;;;;;;;22.15;53.27;100155.19;7306169;19;130235;-38
2023/09/26 05:30:11;;;;;;;92.93;7.05;;;;;;;22.15;53.01;100147.31;7305022;19;130226;-39
2023/09/26 05:32:37;;;;;;;86.35;6.70;;;;;;;22.14;53.73;100150.88;7304221;19;129502;-37
2023/09/26 05:35:06;;;;;;;53.42;4.95;;;;;;;22.09;53.06;100143.41;7308686;19;129395;-36
2023/09/26 05:37:32;;;;;;;69.13;5.70;;;;;;;22.10;53.33;100155.53;7308281;19;133603;-38
2023/09/26 05:39:57;;;;;;;73.67;5.97;;;;;;;22.13;52.99;100151.84;7305179;19;131196;-36
2023/09/26 05:42:23;;;;;;;131.15;9.02;;;;;;;22.09;53.33;100153.91;7306520;19;128968;-39
2023/09/26 05:44:48;;;;;;;101.63;7.13;;;;;;;22.12;53.62;100156.25;7306824;19;131309;-33
2023/09/26 05:47:13;;;;;;;93.28;7.60;;;;;;;22.12;53.05;100152.78;7307769;19;130940;-38
2023/09/26 05:49:39;;;;;;;63.13;5.17;;;;;;;22.11;53.34;100156.38;7307179;19;130413;-36
2023/09/26 05:52:04;;;;;;;86.13;6.78;;;;;;;22.13;53.23;100157.91;7308916;19;129453;-38
2023/09/26 05:54:33;;;;;;;73.67;6.13;;;;;;;22.13;53.48;100160.50;7306826;19;129360;-34
2023/09/26 05:56:59;;;;;;;62.83;5.45;;;;;;;22.12;53.77;100160.66;7307511;19;129277;-38
2023/09/26 05:59:24;;;;;;;105.20;8.27;;;;;;;22.13;52.96;100164.94;7304120;19;130337;-38
2023/09/26 06:01:49;;;;;;;99.32;7.57;;;;;;;22.14;53.29;100161.34;7306323;19;128877;-37
2023/09/26 06:04:16;;;;;;;101.95;7.97;;;;;;;22.15;53.44;100157.78;7307750;19;130183;-38
2023/09/26 06:06:41;;;;;;;;;;;;;;;22.18;55.19;100158.34;7304583;19;130808;-38
2023/09/26 06:09:07;;;;;;;72.67;6.20;;;;;;;22.13;53.59;100155.28;7305734;19;131237;-37
2023/09/26 06:11:32;;;;;;;130.10;8.93;;;;;;;22.14;53.61;100156.13;7306767;19;129632;-35
2023/09/26 06:13:58;;;;;;;53.43;5.07;;;;;;;22.12;53.43;100161.50;7307429;19;129477;-38
2023/09/26 06:16:23;;;;;;;125.18;9.38;;;;;;;22.14;53.42;100161.34;7305191;19;129379;-38
2023/09/26 06:18:48;;;;;;;54.10;5.30;;;;;;;22.12;53.88;100168.50;7303999;19;130795;-36
2023/09/26 06:21:14;;;;;;;123.73;9.00;;;;;;;22.11;53.93;100161.63;7305745;19;130099;-37
2023/09/26 06:23:40;;;;;;;57.35;5.32;;;;;;;22.08;53.85;100161.88;7305271;19;131052;-37
2023/09/26 06:26:07;;;;;;;44.03;4.78;;;;;;;22.11;53.66;100164.25;7306795;19;130982;-38
2023/09/26 06:28:32;;;;;;;;;;;;;;;22.13;55.10;100154.47;7304046;19;129940;-39
2023/09/26 06:31:05;;;;;;;67.80;5.75;;;;;;;22.13;54.83;100162.31;7306015;19;129184;-38
2023/09/26 06:33:31;;;;;;;66.72;5.97;;;;;;;22.05;53.72;100149.06;7306567;19;129367;-39
2023/09/26 06:35:56;;;;;;;29.80;3.83;;;;;;;22.13;53.78;100157.91;7305030;19;131482;-38
2023/09/26 06:38:22;;;;;;;105.50;7.90;;;;;;;22.00;53.54;100144.19;7305109;19;130387;-37
2023/09/26 06:40:47;;;;;;;103.93;7.22;;;;;;;22.10;53.83;100154.72;7303586;19;129627;-38
2023/09/26 06:43:13;;;;;;;83.60;6.67;;;;;;;22.09;53.89;100158.28;7306460;19;129376;-39
2023/09/26 06:45:39;;;;;;;86.97;6.75;;;;;;;22.09;54.07;100158.28;7306093;19;130037;-38
2023/09/26 06:48:05;;;;;;;75.90;6.30;;;;;;;22.09;54.44;100153.06;7302490;19;133502;-39
2023/09/26 06:50:31;;;;;;;106.82;7.60;;;;;;;22.11;53.91;100156.38;7303804;19;129055;-37
2023/09/26 06:52:56;;;;;;;52.15;5.25;;;;;;;22.10;54.20;100154.72;7306321;19;129229;-38
2023/09/26 06:55:21;;;;;;;109.17;8.33;;;;;;;22.09;54.15;100155.66;7305734;19;131168;-39
2023/09/26 06:57:46;;;;;;;84.20;6.93;;;;;;;22.08;54.13;100154.03;7305337;19;130728;-37
2023/09/26 07:00:13;;;;;;;89.03;7.27;;;;;;;21.98;54.36;100140.03;7303905;19;129100;-43
2023/09/26 07:02:40;;;;;;;78.57;6.13;;;;;;;22.09;54.05;100147.81;7304969;19;129579;-37
2023/09/26 07:05:07;;;;;;;45.17;5.05;;;;;;;22.07;53.81;100150.56;7303629;19;130568;-39
2023/09/26 07:07:32;;;;;;;81.43;7.13;;;;;;;22.06;53.71;100155.94;7305859;19;131083;-37
2023/09/26 07:09:58;;;;;;;93.73;7.53;;;;;;;22.05;54.16;100156.91;7303770;19;129581;-38
2023/09/26 07:12:26;;;;;;;105.30;8.27;;;;;;;21.95;54.36;100130.66;7306664;19;129361;-38
2023/09/26 07:14:56;;;;;;;72.35;6.55;;;;;;;22.05;54.27;100146.44;7303727;19;129165;-37
2023/09/26 07:17:21;;;;;;;110.40;8.63;;;;;;;22.05;54.57;100152.47;7304270;19;130300;-37
2023/09/26 07:19:48;;;;;;;80.37;6.67;;;;;;;22.05;54.31;100149.88;7304228;19;129202;-39
2023/09/26 07:22:14;;;;;;;76.70;6.95;;;;;;;22.06;55.13;100150.69;7305136;19;129599;-41
2023/09/26 07:24:39;;;;;;;83.70;6.90;;;;;;;22.06;55.05;100148.09;7302843;19;129403;-37
2023/09/26 07:27:09;;;;;;;75.07;6.47;;;;;;;22.06;55.23;100148.09;7302842;19;130730;-36
2023/09/26 07:29:35;;;;;;;108.65;8.18;;;;;;;22.07;54.59;100150.56;7303285;19;128915;-37
2023/09/26 07:32:00;;;;;;;72.63;6.50;;;;;;;21.91;54.69;100130.06;7304896;19;129073;-37
2023/09/26 07:34:26;;;;;;;106.07;8.65;;;;;;;22.03;55.18;100148.34;7303180;19;130130;-38
2023/09/26 07:36:51;;;;;;;89.70;7.30;;;;;;;22.01;54.81;100145.03;7301037;19;130975;-35
2023/09/26 07:39:17;;;;;;;122.63;10.30;;;;;;;21.98;55.46;100141.69;7299793;19;129061;-38
2023/09/26 07:41:43;;;;;;;74.35;6.78;;;;;;;22.03;55.27;100143.13;7304755;19;129817;-37
2023/09/26 07:44:08;;;;;;;67.97;6.30;;;;;;;22.02;55.61;100146.66;7302878;19;130144;-36
2023/09/26 07:46:34;;;;;;;114.13;9.10;;;;;;;21.98;55.57;100141.69;7303025;19;130489;-35
2023/09/26 07:48:59;;;;;;;77.13;6.90;;;;;;;22.00;55.32;100146.00;7301003;19;130168;-40
2023/09/26 07:51:25;;;;;;;104.03;8.40;;;;;;;21.98;55.98;100141.69;7299683;19;129683;-36
2023/09/26 07:53:50;;;;;;;81.90;7.63;;;;;;;21.98;56.06;100146.94;7299842;19;130427;-40
2023/09/26 07:56:16;;;;;;;134.23;10.17;;;;;;;21.92;55.71;100139.59;7303412;19;130298;-36
2023/09/26 07:58:42;;;;;;;83.33;7.43;;;;;;;21.98;55.93;100141.69;7301697;19;130055;-36
2023/09/26 08:01:08;;;;;;;78.32;7.32;;;;;;;21.98;55.74;100151.34;7300336;19;129544;-36
2023/09/26 08:03:34;;;;;;;81.00;7.25;;;;;;;21.83;55.69;100124.66;7300644;19;130091;-35
2023/09/26 08:06:01;;;;;;;114.73;8.60;;;;;;;21.92;56.28;100142.22;7303590;19;131049;-35
2023/09/26 08:08:26;;;;;;;213.80;16.15;;;;;;;21.94;56.35;100153.41;7286672;19;129829;-38
2023/09/26 08:10:51;;;;;;;106.47;9.10;;;;;;;21.94;56.34;100152.56;7280240;19;130233;-37
2023/09/26 08:13:17;;;;;;;136.52;10.60;;;;;;;21.95;56.78;100155.06;7285490;19;134474;-35
2023/09/26 08:15:43;;;;;;;167.80;11.88;;;;;;;21.93;56.06;100151.72;7282470;19;132180;-42
2023/09/26 08:18:08;;;;;;;125.82;10.07;;;;;;;21.94;56.28;100156.03;7284835;19;129392;-39
2023/09/26 08:20:34;;;;;;;150.55;11.40;;;;;;;21.90;56.05;100149.38;7280338;19;131193;-36
2023/09/26 08:22:59;;;;;;;163.77;12.43;;;;;;;21.90;56.74;100149.38;7284474;19;131077;-37
2023/09/26 08:25:25;;;;;;;193.00;13.75;;;;;;;21.91;56.23;100150.22;7283562;19;129562;-41
2023/09/26 08:27:51;;;;;;;91.10;7.50;;;;;;;21.92;56.52;100155.31;7283340;19;129555;-42
2023/09/26 08:30:16;;;;;;;137.40;10.50;;;;;;;21.88;56.89;100143.41;7281414;19;129323;-37
2023/09/26 08:32:42;;;;;;;198.37;12.97;;;;;;;21.83;56.71;100131.69;7282601;19;131014;-36
2023/09/26 08:35:10;;;;;;;157.80;11.10;;;;;;;21.93;56.22;100141.25;7284027;19;129517;-39
2023/09/26 08:37:37;;;;;;;159.95;12.30;;;;;;;21.94;56.16;100142.94;7282087;19;130969;-37
2023/09/26 08:40:06;;;;;;;103.72;8.65;;;;;;;21.95;56.57;100147.19;7280008;19;129442;-39
2023/09/26 08:42:36;;;;;;;179.55;13.05;;;;;;;21.89;56.15;100121.53;7284434;19;131032;-35
2023/09/26 08:45:03;;;;;;;176.98;12.23;;;;;;;21.93;56.26;100133.41;7283503;19;131037;-35
2023/09/26 08:47:28;;;;;;;151.57;11.60;;;;;;;21.93;56.51;100138.63;7284415;19;130810;-35
2023/09/26 08:49:54;;;;;;;143.03;10.77;;;;;;;21.92;56.04;100131.75;7280749;19;130041;-37
2023/09/26 08:52:23;;;;;;;138.43;10.48;;;;;;;21.95;56.70;100128.88;7282662;19;131368;-39
2023/09/26 08:54:49;;;;;;;170.27;11.65;;;;;;;21.93;56.35;100128.16;7282529;19;130483;-34
2023/09/26 08:57:16;;;;;;;237.90;16.07;;;;;;;21.95;55.86;100128.88;7278704;19;131348;-39
2023/09/26 08:59:44;;;;;;;;;;;;;;;21.98;57.15;100131.22;7277071;19;130176;-37
2023/09/26 09:02:10;;;;;;;;;;;;;;;21.95;56.92;100121.00;7278722;19;131370;-37
2023/09/26 09:04:35;;;;;;;178.32;12.25;;;;;;;21.95;55.63;100114.94;7275327;19;131339;-38
2023/09/26 09:07:06;;;;;;;194.25;13.32;;;;;;;21.96;56.42;100114.81;7282488;19;130033;-37
2023/09/26 09:09:32;;;;;;;171.32;12.80;;;;;;;21.99;55.99;100108.50;7283184;19;129258;-34
2023/09/26 09:11:58;;;;;;;110.43;8.32;;;;;;;21.88;55.84;100085.84;7287294;19;130226;-36
2023/09/26 09:14:32;;;;;;;173.93;11.90;;;;;;;22.03;56.56;100106.44;7287431;19;130424;-37
2023/09/26 09:16:58;;;;;;;153.10;11.15;;;;;;;21.98;56.25;100104.22;7288036;19;129631;-40
2023/09/26 09:19:44;;;;;;;173.37;11.97;;;;;;;21.98;56.66;100095.53;7282919;19;131333;-39
2023/09/26 09:22:24;;;;;;;161.57;11.68;;;;;;;22.01;56.81;100100.50;7289921;19;130667;-41
2023/09/26 09:24:54;;;;;;;186.30;13.60;;;;;;;21.90;56.26;100093.56;7288360;19;130438;-36
2023/09/26 09:27:38;;;;;;;129.95;9.70;;;;;;;21.90;56.85;100096.16;7289829;19;132138;-34
2023/09/26 09:30:08;;;;;;;265.30;17.08;;;;;;;22.00;56.33;100097.06;7280090;19;129343;-36
2023/09/26 09:32:35;;;;;;;171.95;12.30;;;;;;;22.08;56.06;100088.56;7281823;19;130280;-36
2023/09/26 09:35:02;;;;;;;162.13;11.68;;;;;;;22.08;56.49;100083.31;7284865;19;130158;-37
2023/09/26 09:37:28;;;;;;;163.63;11.98;;;;;;;22.12;55.96;100095.19;7288677;19;131069;-36
2023/09/26 09:39:54;;;;;;;154.03;11.13;;;;;;;22.13;55.96;100081.16;7285594;19;129626;-34
2023/09/26 09:42:19;;;;;;;161.70;11.65;;;;;;;22.11;56.15;100080.44;7284318;19;130175;-39
2023/09/26 09:44:44;;;;;;;149.55;10.80;;;;;;;22.12;56.28;100089.94;7288172;19;131341;-41
2023/09/26 09:47:16;;;;;;;87.65;8.10;;;;;;;22.14;55.44;100088.03;7288868;19;129497;-38
2023/09/26 09:49:42;;;;;;;147.65;11.25;;;;;;;22.14;56.25;100082.78;7287640;19;131551;-37
2023/09/26 09:52:10;;;;;;;208.23;14.00;;;;;;;22.11;55.91;100083.91;7285851;19;131735;-36
2023/09/26 09:54:43;;;;;;;145.48;10.70;;;;;;;22.13;56.32;100076.72;7284566;19;132538;-37
2023/09/26 09:57:10;;;;;;;146.55;11.10;;;;;;;22.09;55.79;100069.25;7283791;19;129652;-37
2023/09/26 09:59:37;;;;;;;170.52;12.35;;;;;;;22.13;55.91;100073.28;7285713;19;129769;-36
2023/09/26 10:02:04;;;;;;;126.53;9.30;;;;;;;22.14;56.00;100065.31;7289331;19;130200;-35
2023/09/26 10:04:34;;;;;;;193.85;13.40;;;;;;;22.13;56.13;100066.25;7284620;19;130431;-37
2023/09/26 10:07:00;;;;;;;133.43;10.57;;;;;;;22.12;55.84;100064.59;7286876;19;129920;-40
2023/09/26 10:09:27;;;;;;;153.03;11.43;;;;;;;22.15;55.59;100063.53;7285415;19;130527;-37
2023/09/26 10:11:54;;;;;;;146.05;10.85;;;;;;;22.11;55.41;100068.19;7286606;19;130019;-40
2023/09/26 10:14:21;;;;;;;167.00;10.85;;;;;;;22.12;56.04;100055.91;7288232;19;130340;-35
2023/09/26 10:16:47;;;;;;;151.20;10.68;;;;;;;22.00;55.86;100033.41;7286869;19;129122;-38
2023/09/26 10:19:14;;;;;;;130.25;9.65;;;;;;;22.17;55.84;100057.19;7285081;19;129289;-35
2023/09/26 10:21:41;;;;;;;239.35;16.33;;;;;;;22.16;56.09;100059.94;7281172;19;130989;-37
2023/09/26 10:24:09;;;;;;;189.10;13.18;;;;;;;22.13;55.60;100049.72;7285131;19;130378;-40
2023/09/26 10:26:49;;;;;;;201.57;13.52;;;;;;;22.16;55.73;100044.22;7286002;19;129236;-37
2023/09/26 10:29:22;;;;;;;130.18;9.75;;;;;;;22.19;56.40;100046.56;7287872;19;129465;-34
2023/09/26 10:31:53;;;;;;;144.25;10.70;;;;;;;22.18;56.16;100042.28;7285564;19;129942;-40
2023/09/26 10:34:29;;;;;;;131.93;9.70;;;;;;;22.15;55.79;100047.81;7286607;19;133260;-36
2023/09/26 10:36:56;;;;;;;180.90;12.60;;;;;;;22.15;55.91;100034.72;7287648;19;130631;-35
2023/09/26 10:39:36;;;;;;;190.40;12.77;;;;;;;22.17;55.97;100035.38;7280978;19;129749;-37
2023/09/26 10:42:17;;;;;;;151.75;11.23;;;;;;;22.12;56.57;100027.09;7287804;19;130689;-39
2023/09/26 10:44:46;;;;;;;182.60;13.20;;;;;;;22.13;55.78;100032.19;7287198;19;130795;-34
2023/09/26 10:47:15;;;;;;;153.10;11.25;;;;;;;22.16;55.77;100033.75;7287820;19;129679;-34
2023/09/26 10:49:43;;;;;;;176.35;12.90;;;;;;;22.16;55.75;100036.34;7280828;19;131037;-38
2023/09/26 10:52:09;;;;;;;147.23;10.32;;;;;;;22.15;56.51;100021.63;7285398;19;131047;-36
2023/09/26 10:54:40;;;;;;;159.57;12.27;;;;;;;22.16;55.88;100024.09;7286016;19;129655;-38
2023/09/26 10:57:06;;;;;;;169.75;12.85;;;;;;;22.10;56.11;100029.03;7287063;19;130590;-40
2023/09/26 10:59:32;;;;;;;147.00;11.07;;;;;;;22.11;56.36;100025.44;7286186;19;130279;-37
2023/09/26 11:02:00;;;;;;;228.27;15.73;;;;;;;22.12;56.46;100022.69;7285960;19;130541;-36
2023/09/26 11:04:30;;;;;;;135.20;10.52;;;;;;;22.14;56.52;100014.72;7287761;19;130826;-38